Time;durP1;ratioP1;P1;durP2;ratioP2;P2;SDS_P1;SDS_P2;PMS_P1;PMS_P2;Temp;Humidity;BMP_temperature;BMP_pressure;BME280_temperature;BME280_humidity;BME280_pressure;Samples;Min_cycle;Max_cycle;Signal;HPM_P1;HPM_P2
2021/09/09 00:01:20;;;;;;;;;;;;;;;14.80;66.60;98601.03;1601823;89;20338;-86
2021/09/09 00:03:47;;;;;;;;;;;;;;;14.76;66.58;98604.06;1575432;90;24774;-86
2021/09/09 00:06:19;;;;;;;;;;;;;;;14.73;66.57;98601.19;1601905;89;22596;-86
2021/09/09 00:08:45;;;;;;;;;;;;;;;14.72;66.58;98603.98;1573908;91;26037;-86
2021/09/09 00:11:11;;;;;;;;;;;;;;;14.66;66.61;98594.78;1601594;88;24492;-86
2021/09/09 00:13:38;;;;;;;;;;;;;;;14.67;66.64;98592.52;1575498;90;20388;-86
2021/09/09 00:16:04;;;;;;;;;;;;;;;14.69;66.67;98592.36;1601659;89;24883;-86
2021/09/09 00:18:30;;;;;;;;;;;;;;;14.64;66.69;98592.75;1575573;91;22046;-86
2021/09/09 00:20:56;;;;;;;;;;;;;;;14.60;66.70;98594.81;1587067;89;21005;-86
2021/09/09 00:23:25;;;;;;;;;;;;;;;14.60;66.73;98593.98;1575469;91;24497;-86
2021/09/09 00:25:51;;;;;;;;;;;;;;;14.54;66.76;98594.02;1601711;89;20266;-86
2021/09/09 00:28:17;;;;;;;;;;;;;;;14.56;66.78;98593.89;1575639;91;24753;-86
2021/09/09 00:30:43;;;;;;;;;;;;;;;14.60;66.81;98594.81;1601916;88;22045;-86
2021/09/09 00:33:18;;;;;;;;;;;;;;;14.64;66.84;98592.27;1575652;91;25978;-86
2021/09/09 00:35:44;;;;;;;;;;;;;;;14.65;66.84;98593.95;1601601;89;24450;-85
2021/09/09 00:38:11;;;;;;;;;;;;;;;14.67;66.84;98589.88;1575564;91;20359;-86
2021/09/09 00:40:37;;;;;;;;;;;;;;;14.70;66.85;98592.72;1601846;89;24723;-86
2021/09/09 00:43:03;;;;;;;;;;;;;;;14.63;66.86;98587.97;1575543;91;22614;-86
2021/09/09 00:45:29;;;;;;;;;;;;;;;14.59;66.85;98589.19;1603642;88;26144;-86
2021/09/09 00:47:55;;;;;;;;;;;;;;;14.59;66.86;98586.56;1577776;90;24413;-86
2021/09/09 00:50:22;;;;;;;;;;;;;;;14.57;66.89;98583.20;1605814;89;20248;-86
2021/09/09 00:52:49;;;;;;;;;;;;;;;14.57;66.91;98588.47;1574427;90;24832;-86
2021/09/09 00:55:15;;;;;;;;;;;;;;;14.58;66.94;98584.88;1581182;89;21969;-86
2021/09/09 00:57:48;;;;;;;;;;;;;;;14.58;66.97;98586.20;1579124;91;26823;-86
2021/09/09 01:00:14;;;;;;;;;;;;;;;14.61;66.97;98589.91;1606010;89;24737;-86
2021/09/09 01:02:43;;;;;;;;;;;;;;;14.60;66.98;98585.60;1577974;91;20206;-86
2021/09/09 01:05:12;;;;;;;;;;;;;;;14.62;66.97;98586.28;1605899;89;24947;-86
2021/09/09 01:07:39;;;;;;;;;;;;;;;14.65;66.99;98580.78;1605551;88;22003;-86
2021/09/09 01:10:05;;;;;;;;;;;;;;;14.68;66.97;98584.94;1605785;89;26413;-86
2021/09/09 01:12:32;;;;;;;;;;;;;;;14.65;66.96;98582.58;1577938;91;24509;-86
2021/09/09 01:15:05;;;;;;;;;;;;;;;14.61;66.98;98575.42;1603991;89;20285;-86
2021/09/09 01:17:31;;;;;;;;;;;;;;;14.51;66.97;98585.03;1563998;90;24691;-86
2021/09/09 01:20:00;;;;;;;;;;;;;;;14.50;67.03;98582.55;1605770;89;21892;-86
2021/09/09 01:22:26;;;;;;;;;;;;;;;14.46;67.08;98576.68;1579526;91;26020;-86
2021/09/09 01:24:52;;;;;;;;;;;;;;;14.30;67.06;98582.00;1605943;88;20264;-86
2021/09/09 01:27:18;;;;;;;;;;;;;;;14.13;67.10;98578.11;1579501;91;20249;-86
2021/09/09 01:29:45;;;;;;;;;;;;;;;14.08;67.16;98588.19;1605979;88;24623;-87
2021/09/09 01:32:11;;;;;;;;;;;;;;;14.03;67.25;98579.36;1579537;90;22053;-86
2021/09/09 01:34:37;;;;;;;;;;;;;;;13.94;67.35;98577.48;1605895;89;26040;-86
2021/09/09 01:37:04;;;;;;;;;;;;;;;13.93;67.43;98581.07;1579496;91;24556;-86
2021/09/09 01:39:30;;;;;;;;;;;;;;;13.96;67.51;98573.42;1605878;89;20453;-86
2021/09/09 01:41:59;;;;;;;;;;;;;;;13.93;67.55;98569.23;1579538;91;25428;-86
2021/09/09 01:44:27;;;;;;;;;;;;;;;13.91;67.64;98575.59;1605770;89;21964;-86
2021/09/09 01:46:53;;;;;;;;;;;;;;;13.95;67.71;98579.16;1577760;90;26143;-86
2021/09/09 01:49:19;;;;;;;;;;;;;;;13.99;67.80;98585.84;1600960;88;20379;-86
2021/09/09 01:51:46;;;;;;;;;;;;;;;13.99;67.83;98581.89;1601676;89;20225;-86
2021/09/09 01:54:12;;;;;;;;;;;;;;;13.97;67.86;98582.96;1575451;91;24736;-86
2021/09/09 01:56:38;;;;;;;;;;;;;;;13.93;67.87;98581.55;1601896;89;21986;-86
2021/09/09 01:59:04;;;;;;;;;;;;;;;13.94;67.91;98577.96;1575633;90;26100;-86
2021/09/09 02:01:30;;;;;;;;;;;;;;;13.94;67.96;98584.06;1601743;89;25400;-86
2021/09/09 02:03:56;;;;;;;;;;;;;;;13.89;67.99;98574.39;1575599;90;20216;-86
2021/09/09 02:06:22;;;;;;;;;;;;;;;13.89;68.04;98573.55;1601800;89;24763;-86
2021/09/09 02:08:49;;;;;;;;;;;;;;;13.87;68.07;98576.30;1575429;91;22154;-86
2021/09/09 02:11:15;;;;;;;;;;;;;;;13.85;68.09;98583.50;1601790;89;26056;-86
2021/09/09 02:13:43;;;;;;;;;;;;;;;13.79;68.13;98579.57;1575520;91;25294;-86
2021/09/09 02:16:09;;;;;;;;;;;;;;;13.77;68.17;98584.58;1601837;89;20303;-86
2021/09/09 02:18:35;;;;;;;;;;;;;;;13.74;68.22;98583.53;1574857;91;20350;-86
2021/09/09 02:21:01;;;;;;;;;;;;;;;13.71;68.32;98582.44;1602072;89;21939;-86
2021/09/09 02:23:27;;;;;;;;;;;;;;;13.68;68.37;98583.55;1575685;91;26068;-86
2021/09/09 02:25:54;;;;;;;;;;;;;;;13.61;68.41;98583.66;1576084;90;24412;-86
2021/09/09 02:28:26;;;;;;;;;;;;;;;13.57;68.47;98578.30;1602173;88;20264;-86
2021/09/09 02:30:52;;;;;;;;;;;;;;;13.53;68.52;98574.73;1601824;89;24824;-86
2021/09/09 02:33:18;;;;;;;;;;;;;;;13.43;68.57;98575.91;1575705;91;21979;-86
2021/09/09 02:35:44;;;;;;;;;;;;;;;13.38;68.65;98572.81;1600145;89;26326;-87
2021/09/09 02:38:10;;;;;;;;;;;;;;;13.34;68.70;98573.55;1575419;91;24481;-86
2021/09/09 02:40:36;;;;;;;;;;;;;;;13.30;68.77;98576.54;1601955;89;20337;-86
2021/09/09 02:43:02;;;;;;;;;;;;;;;13.21;68.82;98577.23;1575394;90;24758;-86
2021/09/09 02:45:28;;;;;;;;;;;;;;;13.14;68.86;98578.22;1602028;88;22042;-86
2021/09/09 02:47:56;;;;;;;;;;;;;;;13.09;68.92;98578.99;1576626;90;25974;-86
2021/09/09 02:50:22;;;;;;;;;;;;;;;13.05;69.01;98576.26;1605773;89;24557;-86
2021/09/09 02:52:48;;;;;;;;;;;;;;;13.05;69.10;98574.94;1579533;90;20327;-86
2021/09/09 02:55:22;;;;;;;;;;;;;;;13.09;69.19;98573.74;1606160;89;25545;-86
2021/09/09 02:57:49;;;;;;;;;;;;;;;13.10;69.28;98574.10;1577874;91;22082;-86
2021/09/09 03:00:15;;;;;;;;;;;;;;;13.13;69.37;98566.51;1605836;88;26089;-86
2021/09/09 03:02:41;;;;;;;;;;;;;;;13.03;69.43;98566.36;1579555;91;24554;-86
2021/09/09 03:05:13;;;;;;;;;;;;;;;12.94;69.48;98575.77;1605627;88;20207;-86
2021/09/09 03:07:40;;;;;;;;;;;;;;;12.93;69.56;98573.26;1578076;91;24793;-86
2021/09/09 03:10:06;;;;;;;;;;;;;;;12.89;69.67;98573.98;1605670;89;21969;-86
2021/09/09 03:12:33;;;;;;;;;;;;;;;12.90;69.72;98579.59;1579169;91;26067;-86
2021/09/09 03:14:59;;;;;;;;;;;;;;;12.89;69.80;98573.14;1605748;89;24544;-86
2021/09/09 03:17:25;;;;;;;;;;;;;;;12.90;69.87;98577.45;1605530;89;20369;-86
2021/09/09 03:19:51;;;;;;;;;;;;;;;12.87;69.93;98573.25;1579444;91;24825;-86
2021/09/09 03:22:18;;;;;;;;;;;;;;;12.87;69.98;98579.02;1605724;89;35010;-86
2021/09/09 03:24:46;;;;;;;;;;;;;;;12.90;70.04;98577.45;1579543;91;26072;-86
2021/09/09 03:27:12;;;;;;;;;;;;;;;12.88;70.11;98579.34;1605416;89;24560;-86
2021/09/09 03:29:38;;;;;;;;;;;;;;;12.80;70.12;98580.42;1579465;91;20253;-86
2021/09/09 03:32:04;;;;;;;;;;;;;;;12.77;70.18;98581.95;1605607;89;24828;-86
2021/09/09 03:34:30;;;;;;;;;;;;;;;12.80;70.25;98579.11;1579482;91;22024;-86
2021/09/09 03:37:02;;;;;;;;;;;;;;;12.86;70.31;98580.80;1604062;89;26013;-86
2021/09/09 03:39:28;;;;;;;;;;;;;;;12.94;70.40;98573.15;1579255;91;24517;-86
2021/09/09 03:41:54;;;;;;;;;;;;;;;12.92;70.42;98572.45;1605937;89;20254;-86
2021/09/09 03:44:20;;;;;;;;;;;;;;;12.90;70.45;98573.03;1579552;91;20265;-86
2021/09/09 03:46:46;;;;;;;;;;;;;;;12.85;70.48;98569.92;1602443;89;21989;-86
2021/09/09 03:49:12;;;;;;;;;;;;;;;12.77;70.50;98573.60;1567479;89;20913;-86
2021/09/09 03:51:38;;;;;;;;;;;;;;;12.80;70.56;98578.64;1593678;89;24433;-86
2021/09/09 03:54:04;;;;;;;;;;;;;;;12.83;70.62;98577.55;1568836;90;20269;-86
2021/09/09 03:56:30;;;;;;;;;;;;;;;12.81;70.65;98580.79;1593126;89;24713;-86
2021/09/09 03:58:57;;;;;;;;;;;;;;;12.80;70.69;98579.95;1565149;91;20445;-86
2021/09/09 04:01:23;;;;;;;;;;;;;;;12.86;70.74;98582.59;1595581;89;26073;-86
2021/09/09 04:03:50;;;;;;;;;;;;;;;12.82;70.79;98582.47;1595090;89;25566;-86
2021/09/09 04:06:16;;;;;;;;;;;;;;;12.83;70.82;98579.70;1568445;91;20266;-86
2021/09/09 04:08:42;;;;;;;;;;;;;;;12.82;70.87;98579.84;1591841;89;24841;-86
2021/09/09 04:11:09;;;;;;;;;;;;;;;12.86;70.88;98574.70;1571411;91;21955;-86
2021/09/09 04:13:35;;;;;;;;;;;;;;;12.88;70.91;98577.55;1592878;89;26223;-86
2021/09/09 04:16:02;;;;;;;;;;;;;;;12.94;70.92;98575.77;1567678;90;25409;-86
2021/09/09 04:18:28;;;;;;;;;;;;;;;12.99;70.93;98574.09;1593702;89;20226;-86
2021/09/09 04:20:54;;;;;;;;;;;;;;;13.07;70.94;98573.05;1570910;91;20298;-86
2021/09/09 04:23:21;;;;;;;;;;;;;;;13.15;70.93;98577.23;1595621;89;22353;-85
2021/09/09 04:25:47;;;;;;;;;;;;;;;13.24;70.94;98571.77;1566403;89;26067;-86
2021/09/09 04:28:13;;;;;;;;;;;;;;;13.29;70.90;98569.61;1598310;89;20321;-86
2021/09/09 04:30:42;;;;;;;;;;;;;;;13.34;70.93;98571.39;1566736;91;20264;-86
2021/09/09 04:33:09;;;;;;;;;;;;;;;13.37;70.91;98572.45;1597381;89;24989;-86
2021/09/09 04:35:35;;;;;;;;;;;;;;;13.40;70.90;98573.06;1569582;89;21950;-87
2021/09/09 04:38:01;;;;;;;;;;;;;;;13.44;70.86;98577.59;1598098;89;26047;-86
2021/09/09 04:40:28;;;;;;;;;;;;;;;13.49;70.82;98568.02;1570890;91;20222;-86
2021/09/09 04:42:54;;;;;;;;;;;;;;;13.56;70.81;98571.36;1590527;89;20454;-86
2021/09/09 04:45:20;;;;;;;;;;;;;;;13.58;70.77;98570.74;1592837;89;24734;-86
2021/09/09 04:47:46;;;;;;;;;;;;;;;13.60;70.73;98575.41;1570691;90;21966;-86
2021/09/09 04:50:13;;;;;;;;;;;;;;;13.68;70.70;98568.23;1593227;89;21006;-86
2021/09/09 04:52:39;;;;;;;;;;;;;;;13.70;70.66;98567.14;1568804;90;24441;-86
2021/09/09 04:55:11;;;;;;;;;;;;;;;13.75;70.60;98570.23;1589087;89;20590;-86
2021/09/09 04:57:37;;;;;;;;;;;;;;;13.79;70.54;98567.73;1566354;91;24829;-86
2021/09/09 05:00:03;;;;;;;;;;;;;;;13.89;70.46;98568.30;1593470;89;21928;-86
2021/09/09 05:02:32;;;;;;;;;;;;;;;13.97;70.40;98569.80;1554028;91;21821;-86
2021/09/09 05:04:58;;;;;;;;;;;;;;;14.02;70.34;98573.73;1590424;88;24385;-86
2021/09/09 05:07:24;;;;;;;;;;;;;;;14.12;70.26;98575.16;1568795;91;20226;-86
2021/09/09 05:09:50;;;;;;;;;;;;;;;14.21;70.17;98569.13;1597132;89;24785;-86
2021/09/09 05:12:16;;;;;;;;;;;;;;;14.30;70.09;98567.52;1593574;89;21991;-86
2021/09/09 05:14:42;;;;;;;;;;;;;;;14.39;70.03;98569.44;1566499;91;21159;-86
2021/09/09 05:17:09;;;;;;;;;;;;;;;14.44;69.91;98564.62;1597449;89;24519;-86
2021/09/09 05:19:35;;;;;;;;;;;;;;;14.50;69.85;98566.27;1567997;91;20304;-86
2021/09/09 05:22:02;;;;;;;;;;;;;;;14.58;69.78;98562.49;1594866;89;24835;-86
2021/09/09 05:24:27;;;;;;;;;;;;;;;14.66;69.66;98552.64;1568117;91;20256;-86
2021/09/09 05:26:54;;;;;;;;;;;;;;;14.77;69.61;98562.27;1596147;89;26073;-86
2021/09/09 05:29:22;;;;;;;;;;;;;;;14.83;69.52;98553.84;1594314;88;24494;-86
2021/09/09 05:31:49;;;;;;;;;;;;;;;14.90;69.42;98552.33;1595356;88;20397;-86
2021/09/09 05:34:15;;;;;;;;;;;;;;;14.97;69.31;98551.69;1574053;91;24763;-86
2021/09/09 05:36:41;;;;;;;;;;;;;;;15.06;69.16;98550.89;1583260;89;22057;-86
2021/09/09 05:39:07;;;;;;;;;;;;;;;15.14;69.06;98544.97;1566511;91;25939;-86
2021/09/09 05:41:34;;;;;;;;;;;;;;;15.26;68.90;98540.44;1575680;89;20253;-86
2021/09/09 05:44:00;;;;;;;;;;;;;;;15.34;68.82;98541.90;1569495;91;20318;-86
2021/09/09 05:46:26;;;;;;;;;;;;;;;15.39;68.69;98548.44;1593483;88;24789;-86
2021/09/09 05:48:52;;;;;;;;;;;;;;;15.43;68.55;98538.48;1562076;89;22033;-86
2021/09/09 05:51:18;;;;;;;;;;;;;;;15.49;68.44;98540.06;1565831;91;21475;-86
2021/09/09 05:53:44;;;;;;;;;;;;;;;15.56;68.35;98539.56;1548166;91;20272;-86
2021/09/09 05:56:14;;;;;;;;;;;;;;;15.63;68.23;98529.66;1540519;91;20363;-86
2021/09/09 05:58:42;;;;;;;;;;;;;;;15.71;68.08;98535.07;1540342;91;24854;-86
2021/09/09 06:01:08;;;;;;;;;;;;;;;15.80;67.96;98535.59;1544614;91;22001;-86
2021/09/09 06:03:35;;;;;;;;;;;;;;;15.85;67.85;98533.38;1541998;91;21940;-86
2021/09/09 06:06:04;;;;;;;;;;;;;;;15.89;67.77;98537.87;1544704;91;24506;-86
2021/09/09 06:08:31;;;;;;;;;;;;;;;15.93;67.61;98535.30;1544655;91;20567;-86
2021/09/09 06:10:58;;;;;;;;;;;;;;;15.97;67.50;98538.52;1546011;92;24768;-86
2021/09/09 06:13:24;;;;;;;;;;;;;;;16.06;67.37;98543.80;1545369;91;22262;-86
2021/09/09 06:15:50;;;;;;;;;;;;;;;16.10;67.23;98545.17;1545142;91;21068;-85
2021/09/09 06:18:16;;;;;;;;;;;;;;;16.17;67.06;98541.50;1546474;91;24555;-86
2021/09/09 06:20:42;;;;;;;;;;;;;;;16.24;66.92;98532.05;1546994;91;20244;-86
2021/09/09 06:23:08;;;;;;;;;;;;;;;16.28;66.80;98533.44;1543858;91;24732;-86
2021/09/09 06:25:34;;;;;;;;;;;;;;;16.34;66.66;98539.48;1547213;91;21960;-86
2021/09/09 06:28:00;;;;;;;;;;;;;;;16.45;66.57;98541.13;1543010;91;26091;-86
2021/09/09 06:30:27;;;;;;;;;;;;;;;16.48;66.44;98532.42;1540432;91;20389;-86
2021/09/09 06:32:54;;;;;;;;;;;;;;;16.56;66.31;98538.33;1546350;91;20283;-86
2021/09/09 06:35:20;;;;;;;;;;;;;;;16.61;66.15;98540.92;1542590;91;24849;-86
2021/09/09 06:37:47;;;;;;;;;;;;;;;16.65;66.05;98539.66;1543845;91;20255;-86
2021/09/09 06:40:15;;;;;;;;;;;;;;;16.68;65.95;98538.07;1547331;91;26101;-86
2021/09/09 06:42:41;;;;;;;;;;;;;;;16.75;65.87;98536.19;1546244;91;24519;-86
2021/09/09 06:45:09;;;;;;;;;;;;;;;16.78;65.79;98538.03;1543232;91;20242;-86
2021/09/09 06:47:38;;;;;;;;;;;;;;;16.87;65.77;98537.65;1542981;91;25346;-86
2021/09/09 06:50:05;;;;;;;;;;;;;;;16.90;65.67;98537.37;1572902;89;21926;-86
2021/09/09 06:52:31;;;;;;;;;;;;;;;16.93;65.54;98528.66;1585665;89;25995;-86
2021/09/09 06:55:00;;;;;;;;;;;;;;;16.98;65.50;98531.70;1582981;89;24712;-86
2021/09/09 06:57:26;;;;;;;;;;;;;;;17.01;65.43;98527.95;1564065;89;20551;-86
2021/09/09 06:59:52;;;;;;;;;;;;;;;17.12;65.30;98523.31;1583230;89;24727;-86
2021/09/09 07:02:21;;;;;;;;;;;;;;;17.17;65.17;98522.03;1566127;91;20216;-86
2021/09/09 07:04:47;;;;;;;;;;;;;;;17.24;65.05;98522.61;1590297;88;26161;-86
2021/09/09 07:07:13;;;;;;;;;;;;;;;17.34;64.90;98521.26;1590793;89;25155;-86
2021/09/09 07:09:45;;;;;;;;;;;;;;;17.37;64.85;98518.30;1568973;91;20288;-86
2021/09/09 07:12:11;;;;;;;;;;;;;;;17.45;64.70;98524.54;1593870;89;24753;-86
2021/09/09 07:14:38;;;;;;;;;;;;;;;17.55;64.56;98525.31;1566639;91;21972;-86
2021/09/09 07:17:04;;;;;;;;;;;;;;;17.67;64.37;98522.00;1594128;89;26654;-86
2021/09/09 07:19:30;;;;;;;;;;;;;;;17.77;64.22;98525.90;1569400;91;24645;-87
2021/09/09 07:21:56;;;;;;;;;;;;;;;17.86;64.08;98523.17;1619561;88;20250;-86
2021/09/09 07:24:22;;;;;;;;;;;;;;;17.95;63.89;98524.91;1562721;91;24904;-86
2021/09/09 07:26:48;;;;;;;;;;;;;;;18.09;63.53;98526.69;1592387;89;22052;-87
2021/09/09 07:29:14;;;;;;;;;;;;;;;18.18;63.27;98531.91;1567475;91;26002;-86
2021/09/09 07:31:42;;;;;;;;;;;;;;;18.23;63.05;98530.95;1596014;89;24536;-86
2021/09/09 07:34:17;;;;;;;;;;;;;;;18.30;62.93;98528.53;1594970;89;20712;-86
2021/09/09 07:36:43;;;;;;;;;;;;;;;18.37;62.73;98530.42;1596893;89;24939;-86
2021/09/09 07:39:09;;;;;;;;;;;;;;;18.44;62.50;98531.13;1567218;91;21995;-86
2021/09/09 07:41:35;;;;;;;;;;;;;;;18.48;62.38;98539.11;1589641;89;20939;-86
2021/09/09 07:44:02;;;;;;;;;;;;;;;18.50;62.26;98530.48;1567184;91;24638;-86
2021/09/09 07:46:30;;;;;;;;;;;;;;;18.55;62.08;98535.70;1592937;89;20541;-87
2021/09/09 07:48:56;;;;;;;;;;;;;;;18.63;61.90;98534.45;1565976;91;24867;-86
2021/09/09 07:51:23;;;;;;;;;;;;;;;18.63;61.74;98517.70;1554491;92;22694;-86
2021/09/09 07:53:50;;;;;;;;;;;;;;;18.76;61.61;98532.20;1556418;91;26077;-86
2021/09/09 07:56:17;;;;;;;;;;;;;;;18.86;61.41;98531.28;1558677;92;24535;-86
2021/09/09 07:58:48;;;;;;;;;;;;;;;18.92;61.26;98535.47;1552865;91;20227;-86
2021/09/09 08:01:12;;;;;;;;;;;;;;;19.02;61.09;98534.86;1537115;92;24842;-86
2021/09/09 08:03:38;;;;;;;;;;;;;;;19.07;60.84;98525.92;1586570;89;22173;-86
2021/09/09 08:06:04;;;;;;;;;;;;;;;19.14;60.54;98530.11;1583855;89;26274;-86
2021/09/09 08:08:30;;;;;;;;;;;;;;;19.21;60.30;98531.95;1584030;89;25384;-86
2021/09/09 08:10:56;;;;;;;;;;;;;;;19.27;60.12;98526.99;1594402;89;20281;-86
2021/09/09 08:13:22;;;;;;;;;;;;;;;19.35;59.89;98523.89;1586619;89;24719;-86
2021/09/09 08:15:48;;;;;;;;;;;;;;;19.42;59.67;98526.75;1587501;89;20329;-86
2021/09/09 08:18:14;;;;;;;;;;;;;;;19.49;59.45;98532.59;1584260;89;20971;-86
2021/09/09 08:20:46;;;;;;;;;;;;;;;19.54;59.26;98534.76;1587571;89;24451;-86
2021/09/09 08:23:12;;;;;;;;;;;;;;;19.60;59.05;98526.98;1581561;89;20509;-86
2021/09/09 08:25:38;;;;;;;;;;;;;;;19.71;58.83;98531.66;1591264;89;24796;-86
2021/09/09 08:28:04;;;;;;;;;;;;;;;19.78;58.67;98530.86;1589259;89;20295;-86
2021/09/09 08:30:30;;;;;;;;;;;;;;;19.83;58.61;98530.36;1588661;89;26066;-86
2021/09/09 08:32:57;;;;;;;;;;;;;;;19.92;58.57;98534.19;1589981;89;24628;-86
2021/09/09 08:35:24;;;;;;;;;;;;;;;20.00;58.36;98530.23;1589721;89;20239;-86
2021/09/09 08:37:57;;;;;;;;;;;;;;;20.09;58.25;98532.39;1590492;89;24380;-86
2021/09/09 08:40:23;;;;;;;;;;;;;;;20.17;58.16;98535.07;1584920;89;22110;-86
2021/09/09 08:42:49;;;;;;;;;;;;;;;20.22;58.04;98532.74;1590498;89;21099;-86
2021/09/09 08:45:18;;;;;;;;;;;;;;;20.25;57.84;98529.73;1586952;89;24407;-86
2021/09/09 08:47:45;;;;;;;;;;;;;;;20.36;57.70;98527.28;1550127;92;20239;-86
2021/09/09 08:50:15;;;;;;;;;;;;;;;20.42;57.58;98526.62;1553704;90;25646;-86
2021/09/09 08:52:43;;;;;;;;;;;;;;;20.45;57.45;98533.78;1592099;88;22104;-86
2021/09/09 08:55:10;;;;;;;;;;;;;;;20.50;57.30;98531.95;1595268;89;26188;-86
2021/09/09 08:57:36;;;;;;;;;;;;;;;20.54;57.18;98531.10;1566959;91;24607;-86
2021/09/09 09:00:04;;;;;;;;;;;;;;;20.56;56.92;98529.12;1595458;89;20339;-86
2021/09/09 09:02:30;;;;;;;;;;;;;;;20.64;56.64;98530.42;1565523;91;24780;-86
2021/09/09 09:05:00;;;;;;;;;;;;;;;20.71;56.37;98524.77;1591914;89;22031;-86
2021/09/09 09:07:34;;;;;;;;;;;;;;;20.76;56.23;98518.44;1567610;91;25613;-86
2021/09/09 09:10:03;;;;;;;;;;;;;;;20.82;56.18;98520.42;1593098;89;24579;-86
2021/09/09 09:12:42;;;;;;;;;;;;;;;20.91;56.10;98518.06;1565012;91;20166;-86
2021/09/09 09:15:27;;;;;;;;;;;;;;;20.98;55.93;98516.89;1591163;89;24846;-86
2021/09/09 09:17:55;;;;;;;;;;;;;;;21.03;55.63;98521.20;1571499;91;22275;-86
2021/09/09 09:20:21;;;;;;;;;;;;;;;21.11;55.44;98515.87;1590742;89;26032;-86
2021/09/09 09:22:47;;;;;;;;;;;;;;;21.16;55.27;98505.56;1565519;90;24397;-86
2021/09/09 09:25:14;;;;;;;;;;;;;;;21.22;55.17;98511.00;1593760;89;20288;-86
2021/09/09 09:27:46;;;;;;;;;;;;;;;21.25;54.96;98509.84;1565275;90;24815;-86
2021/09/09 09:30:13;;;;;;;;;;;;;;;21.29;54.82;98512.48;1592331;89;21996;-87
2021/09/09 09:32:46;;;;;;;;;;;;;;;21.35;54.71;98512.29;1566312;91;26084;-86
2021/09/09 09:35:17;;;;;;;;;;;;;;;21.38;54.47;98503.47;1593639;89;24365;-86
2021/09/09 09:37:59;;;;;;;;;;;;;;;21.44;54.30;98511.27;1565171;91;20320;-86
2021/09/09 09:40:32;;;;;;;;;;;;;;;21.48;54.19;98504.59;1594428;89;25478;-86
2021/09/09 09:43:01;;;;;;;;;;;;;;;21.52;54.21;98503.22;1596037;88;22025;-86
2021/09/09 09:45:27;;;;;;;;;;;;;;;21.57;54.06;98504.86;1593318;89;26262;-86
2021/09/09 09:47:53;;;;;;;;;;;;;;;21.60;53.95;98501.86;1565436;90;24469;-86
2021/09/09 09:50:21;;;;;;;;;;;;;;;21.67;53.74;98503.63;1593761;88;20406;-86
2021/09/09 09:52:49;;;;;;;;;;;;;;;21.73;53.49;98504.77;1579411;91;24843;-87
2021/09/09 09:55:15;;;;;;;;;;;;;;;21.77;53.43;98503.91;1606001;89;21810;-86
2021/09/09 09:57:54;;;;;;;;;;;;;;;21.79;53.26;98501.41;1579462;91;26060;-87
2021/09/09 10:00:21;;;;;;;;;;;;;;;21.84;53.11;98502.20;1598186;88;24451;-87
2021/09/09 10:02:52;;;;;;;;;;;;;;;21.87;52.91;98497.37;1605362;89;20687;-87
2021/09/09 10:05:21;;;;;;;;;;;;;;;21.95;52.66;98498.66;1579459;90;25501;-87
2021/09/09 10:07:48;;;;;;;;;;;;;;;21.98;52.38;98493.49;1604555;89;22660;-87
2021/09/09 10:10:14;;;;;;;;;;;;;;;22.01;52.26;98491.28;1579494;91;26089;-87
2021/09/09 10:12:43;;;;;;;;;;;;;;;22.05;52.13;98487.25;1605527;89;24661;-87
2021/09/09 10:15:12;;;;;;;;;;;;;;;22.12;52.08;98484.70;1579224;90;20538;-87
2021/09/09 10:17:37;;;;;;;;;;;;;;;22.17;51.84;98479.66;1605634;89;24796;-87
2021/09/09 10:20:23;;;;;;;;;;;;;;;22.19;51.67;98476.33;1579521;90;22064;-87
2021/09/09 10:22:54;;;;;;;;;;;;;;;22.28;51.54;98475.74;1582068;90;25977;-87
2021/09/09 10:25:21;;;;;;;;;;;;;;;22.36;51.15;98477.84;1575339;90;25344;-87
2021/09/09 10:27:47;;;;;;;;;;;;;;;22.40;50.77;98472.47;1606404;88;20270;-87
2021/09/09 10:30:17;;;;;;;;;;;;;;;22.44;50.56;98466.26;1605855;89;24818;-87
2021/09/09 10:32:48;;;;;;;;;;;;;;;22.49;50.20;98472.70;1605902;89;22064;-87
2021/09/09 10:35:19;;;;;;;;;;;;;;;22.52;49.96;98462.19;1579539;91;26163;-87
2021/09/09 10:37:55;;;;;;;;;;;;;;;22.56;49.64;98468.81;1605710;89;24540;-87
2021/09/09 10:40:30;;;;;;;;;;;;;;;22.62;49.38;98466.75;1577920;91;20543;-87
2021/09/09 10:42:56;;;;;;;;;;;;;;;22.66;49.22;98456.53;1605824;88;24815;-87
2021/09/09 10:45:24;;;;;;;;;;;;;;;22.66;49.03;98456.03;1598727;88;21991;-87
2021/09/09 10:47:50;;;;;;;;;;;;;;;22.69;49.14;98458.35;1606258;88;26025;-87
2021/09/09 10:50:16;;;;;;;;;;;;;;;22.72;49.05;98454.50;1579626;89;24481;-87
2021/09/09 10:53:03;;;;;;;;;;;;;;;22.75;48.74;98453.62;1605914;89;20292;-87
2021/09/09 10:55:33;;;;;;;;;;;;;;;22.78;48.54;98455.94;1579558;91;25527;-87
2021/09/09 10:58:20;;;;;;;;;;;;;;;22.85;48.41;98452.03;1605823;89;21999;-87
2021/09/09 11:00:54;;;;;;;;;;;;;;;22.89;48.22;98447.47;1579419;91;26052;-87
2021/09/09 11:03:39;;;;;;;;;;;;;;;22.94;48.10;98449.08;1599978;89;24440;-86
2021/09/09 11:06:07;;;;;;;;;;;;;;;22.95;47.99;98451.24;1597951;88;20381;-87
2021/09/09 11:08:33;;;;;;;;;;;;;;;22.97;47.86;98444.36;1604441;89;25469;-87
2021/09/09 11:11:01;;;;;;;;;;;;;;;22.97;47.63;98437.69;1579496;91;21529;-87
2021/09/09 11:13:28;;;;;;;;;;;;;;;22.94;47.48;98435.73;1605971;89;26042;-87
2021/09/09 11:15:54;;;;;;;;;;;;;;;22.98;47.39;98444.69;1579981;90;24535;-87
2021/09/09 11:18:24;;;;;;;;;;;;;;;23.03;47.22;98446.30;1605999;88;20308;-87
2021/09/09 11:20:52;;;;;;;;;;;;;;;23.06;47.09;98436.09;1605734;89;24743;-88
2021/09/09 11:23:23;;;;;;;;;;;;;;;23.08;47.01;98435.38;1577936;91;21975;-87
2021/09/09 11:25:55;;;;;;;;;;;;;;;23.06;46.77;98432.09;1605410;89;26879;-87
2021/09/09 11:28:30;;;;;;;;;;;;;;;23.06;46.70;98430.75;1579275;91;24389;-87
2021/09/09 11:31:15;;;;;;;;;;;;;;;23.15;46.90;98434.97;1604418;89;20246;-87
2021/09/09 11:33:52;;;;;;;;;;;;;;;23.29;46.83;98433.30;1578254;91;24851;-87
2021/09/09 11:36:19;;;;;;;;;;;;;;;23.40;46.62;98431.47;1580180;90;21968;-87
2021/09/09 11:38:48;;;;;;;;;;;;;;;23.43;46.51;98425.74;1598331;88;21258;-87
2021/09/09 11:41:19;;;;;;;;;;;;;;;23.41;46.40;98427.77;1606387;88;24501;-87
2021/09/09 11:43:50;;;;;;;;;;;;;;;23.42;46.31;98420.07;1605616;89;20589;-87
2021/09/09 11:46:24;;;;;;;;;;;;;;;23.47;46.20;98416.86;1579335;91;24870;-87
2021/09/09 11:48:54;;;;;;;;;;;;;;;23.51;46.18;98418.16;1605762;89;22266;-87
2021/09/09 11:51:40;;;;;;;;;;;;;;;23.63;46.19;98424.64;1579598;90;26064;-87
2021/09/09 11:54:07;;;;;;;;;;;;;;;23.73;45.98;98421.97;1589020;89;24380;-87
2021/09/09 11:56:34;;;;;;;;;;;;;;;23.85;45.81;98427.63;1597027;89;20284;-87
2021/09/09 11:59:03;;;;;;;;;;;;;;;23.95;45.75;98429.47;1590383;89;24814;-87
2021/09/09 12:01:30;;;;;;;;;;;;;;;23.96;45.47;98421.77;1596025;89;22809;-87
2021/09/09 12:03:57;;;;;;;;;;;;;;;23.95;45.32;98417.95;1589086;89;26290;-87
2021/09/09 12:06:28;;;;;;;;;;;;;;;24.02;45.34;98414.83;1600458;87;24902;-87
2021/09/09 12:08:59;;;;;;;;;;;;;;;24.09;45.29;98413.05;1592396;89;20241;-87
2021/09/09 12:11:35;;;;;;;;;;;;;;;24.11;45.06;98411.02;1588614;89;24821;-87
2021/09/09 12:14:14;;;;;;;;;;;;;;;24.14;44.82;98414.13;1589187;89;22086;-87
2021/09/09 12:16:40;;;;;;;;;;;;;;;24.21;44.77;98414.21;1594794;89;26091;-87
2021/09/09 12:19:14;;;;;;;;;;;;;;;24.28;44.73;98408.89;1581097;89;24400;-87
2021/09/09 12:21:54;;;;;;;;;;;;;;;24.30;44.64;98410.87;1586105;89;20476;-87
2021/09/09 12:24:22;;;;;;;;;;;;;;;24.32;44.61;98404.31;1589338;89;25798;-87
2021/09/09 12:27:01;;;;;;;;;;;;;;;24.26;44.19;98395.73;1586688;89;22651;-87
2021/09/09 12:29:29;;;;;;;;;;;;;;;24.27;44.03;98400.06;1588075;89;26025;-87
2021/09/09 12:31:55;;;;;;;;;;;;;;;24.31;44.04;98390.63;1592790;89;24716;-87
2021/09/09 12:34:21;;;;;;;;;;;;;;;24.35;43.83;98395.05;1594793;89;20293;-87
2021/09/09 12:36:48;;;;;;;;;;;;;;;24.37;43.77;98391.18;1587021;89;24720;-87
2021/09/09 12:39:15;;;;;;;;;;;;;;;24.44;43.84;98385.34;1587639;89;22065;-87
2021/09/09 12:41:42;;;;;;;;;;;;;;;24.48;43.81;98383.12;1600645;89;26037;-87
2021/09/09 12:44:09;;;;;;;;;;;;;;;24.51;43.75;98376.02;1583879;89;24497;-87
2021/09/09 12:46:43;;;;;;;;;;;;;;;24.48;43.62;98377.77;1589441;89;20250;-87
2021/09/09 12:49:12;;;;;;;;;;;;;;;24.48;43.52;98377.26;1585703;89;25638;-87
2021/09/09 12:51:45;;;;;;;;;;;;;;;24.59;43.67;98370.02;1579834;88;22347;-87